logo
Search for airport 
image banner adimage banner adimage banner ad
image banner ad

EI0020 - Kilmallock

Located in , Ireland

ICAO - , IATA -

Data provided by Airmate  

General information

Coordinates: N52°23'56" W8°34'24"
Elevation is 301 feet MSL.
 
View others Airports in County Limerick

Operational data

Special qualification required
Current time UTC:
Current local time:
Weather at : EINN - Shannon ( 41 km )
METAR: EINN 191600Z 29009KT 9999 FEW013 BKN030 13/11 Q1024 NOSIG
TAF: TAF EINN 191100Z 1912/2012 30010KT 9999 SCT018 BKN025 BECMG 1917/1919 VRB03KT PROB30 TEMPO 1923/2003 3000 BR BKN003 TEMPO 2003/2008 0500 FG BKN001 PROB40 TEMPO 2008/2010 3000 BR BKN003
View NOTAMs / SUP AIP / TFR affecting this airport [VIEW]
Communications frequencies: [VIEW]

Runways:

Airport contact information

Address: Ireland

Satellite view of EI0020